sensor_id;sensor_type;location;lat;lon;timestamp;temperature;humidity
18073;DHT22;9161;47.348;9.648;2022-09-25T00:07:26;12.40;99.90
18073;DHT22;9161;47.348;9.648;2022-09-25T00:13:34;12.40;99.90
18073;DHT22;9161;47.348;9.648;2022-09-25T00:19:15;12.40;99.90
18073;DHT22;9161;47.348;9.648;2022-09-25T00:25:04;12.50;99.90
18073;DHT22;9161;47.348;9.648;2022-09-25T00:37:05;12.30;99.90
18073;DHT22;9161;47.348;9.648;2022-09-25T00:43:32;12.20;99.90
18073;DHT22;9161;47.348;9.648;2022-09-25T00:54:51;12.00;99.90
18073;DHT22;9161;47.348;9.648;2022-09-25T01:00:39;12.00;99.90
18073;DHT22;9161;47.348;9.648;2022-09-25T01:18:45;11.70;99.90
18073;DHT22;9161;47.348;9.648;2022-09-25T01:30:10;11.80;99.90
18073;DHT22;9161;47.348;9.648;2022-09-25T01:35:55;11.80;99.90
18073;DHT22;9161;47.348;9.648;2022-09-25T01:41:55;11.70;99.90
18073;DHT22;9161;47.348;9.648;2022-09-25T01:47:41;11.80;99.90
18073;DHT22;9161;47.348;9.648;2022-09-25T01:53:00;11.90;99.90
18073;DHT22;9161;47.348;9.648;2022-09-25T01:59:02;11.90;99.90
18073;DHT22;9161;47.348;9.648;2022-09-25T02:21:57;11.90;99.90
18073;DHT22;9161;47.348;9.648;2022-09-25T02:28:18;11.90;99.90
18073;DHT22;9161;47.348;9.648;2022-09-25T02:34:06;11.90;99.90
18073;DHT22;9161;47.348;9.648;2022-09-25T02:39:47;11.90;99.90
18073;DHT22;9161;47.348;9.648;2022-09-25T02:45:13;11.90;99.90
18073;DHT22;9161;47.348;9.648;2022-09-25T02:51:03;11.90;99.90
18073;DHT22;9161;47.348;9.648;2022-09-25T02:56:31;11.80;99.90
18073;DHT22;9161;47.348;9.648;2022-09-25T03:02:08;11.80;99.90
18073;DHT22;9161;47.348;9.648;2022-09-25T03:07:35;11.90;99.90
18073;DHT22;9161;47.348;9.648;2022-09-25T03:12:39;11.90;99.90
18073;DHT22;9161;47.348;9.648;2022-09-25T03:18:14;12.00;99.90
18073;DHT22;9161;47.348;9.648;2022-09-25T03:23:38;11.90;99.90
18073;DHT22;9161;47.348;9.648;2022-09-25T03:29:07;11.90;99.90
18073;DHT22;9161;47.348;9.648;2022-09-25T03:34:56;11.80;99.90
18073;DHT22;9161;47.348;9.648;2022-09-25T03:40:25;11.80;99.90
18073;DHT22;9161;47.348;9.648;2022-09-25T03:46:34;11.70;99.90
18073;DHT22;9161;47.348;9.648;2022-09-25T04:15:10;11.80;99.90
18073;DHT22;9161;47.348;9.648;2022-09-25T04:21:03;11.80;99.90
18073;DHT22;9161;47.348;9.648;2022-09-25T04:26:43;11.70;99.90
18073;DHT22;9161;47.348;9.648;2022-09-25T04:32:35;11.80;99.90
18073;DHT22;9161;47.348;9.648;2022-09-25T04:38:38;11.80;99.90
18073;DHT22;9161;47.348;9.648;2022-09-25T04:44:34;11.70;99.90
18073;DHT22;9161;47.348;9.648;2022-09-25T04:50:23;11.70;99.90
18073;DHT22;9161;47.348;9.648;2022-09-25T04:56:08;11.70;99.90
18073;DHT22;9161;47.348;9.648;2022-09-25T05:01:17;11.60;99.90
18073;DHT22;9161;47.348;9.648;2022-09-25T05:06:18;11.70;99.90
18073;DHT22;9161;47.348;9.648;2022-09-25T05:11:19;11.80;99.90
18073;DHT22;9161;47.348;9.648;2022-09-25T05:16:08;11.80;99.90
18073;DHT22;9161;47.348;9.648;2022-09-25T05:27:06;11.70;99.90
18073;DHT22;9161;47.348;9.648;2022-09-25T05:31:53;11.70;99.90
18073;DHT22;9161;47.348;9.648;2022-09-25T05:37:15;11.60;99.90
18073;DHT22;9161;47.348;9.648;2022-09-25T05:42:32;11.60;99.90
18073;DHT22;9161;47.348;9.648;2022-09-25T05:48:04;11.60;99.90
18073;DHT22;9161;47.348;9.648;2022-09-25T05:54:04;11.70;99.90
18073;DHT22;9161;47.348;9.648;2022-09-25T06:05:05;12.10;99.90
18073;DHT22;9161;47.348;9.648;2022-09-25T06:11:11;12.20;99.90
18073;DHT22;9161;47.348;9.648;2022-09-25T06:17:05;12.60;99.90
18073;DHT22;9161;47.348;9.648;2022-09-25T06:22:15;12.90;99.90
18073;DHT22;9161;47.348;9.648;2022-09-25T06:28:16;13.20;99.90
18073;DHT22;9161;47.348;9.648;2022-09-25T06:34:03;13.30;99.90
18073;DHT22;9161;47.348;9.648;2022-09-25T06:40:13;13.30;99.90
18073;DHT22;9161;47.348;9.648;2022-09-25T06:45:36;13.40;99.90
18073;DHT22;9161;47.348;9.648;2022-09-25T06:50:57;13.40;99.90
18073;DHT22;9161;47.348;9.648;2022-09-25T06:56:36;13.50;99.90
18073;DHT22;9161;47.348;9.648;2022-09-25T07:02:03;13.60;99.90
18073;DHT22;9161;47.348;9.648;2022-09-25T07:08:11;13.60;99.90
18073;DHT22;9161;47.348;9.648;2022-09-25T07:13:52;13.90;99.90
18073;DHT22;9161;47.348;9.648;2022-09-25T07:25:13;14.90;99.90
18073;DHT22;9161;47.348;9.648;2022-09-25T07:30:30;15.60;99.90
18073;DHT22;9161;47.348;9.648;2022-09-25T07:35:53;16.10;99.90
18073;DHT22;9161;47.348;9.648;2022-09-25T07:41:20;16.00;99.90
18073;DHT22;9161;47.348;9.648;2022-09-25T07:46:52;15.80;99.90
18073;DHT22;9161;47.348;9.648;2022-09-25T07:58:27;16.20;99.90
18073;DHT22;9161;47.348;9.648;2022-09-25T08:04:18;16.10;99.90
18073;DHT22;9161;47.348;9.648;2022-09-25T08:15:23;16.10;99.90
18073;DHT22;9161;47.348;9.648;2022-09-25T08:20:43;16.40;99.90
18073;DHT22;9161;47.348;9.648;2022-09-25T08:26:03;16.70;99.90
18073;DHT22;9161;47.348;9.648;2022-09-25T08:31:21;17.10;99.90
18073;DHT22;9161;47.348;9.648;2022-09-25T08:37:12;17.80;99.90
18073;DHT22;9161;47.348;9.648;2022-09-25T08:42:29;18.30;99.90
18073;DHT22;9161;47.348;9.648;2022-09-25T08:47:47;18.60;99.90
18073;DHT22;9161;47.348;9.648;2022-09-25T08:53:29;18.30;99.90
18073;DHT22;9161;47.348;9.648;2022-09-25T08:59:29;18.60;99.90
18073;DHT22;9161;47.348;9.648;2022-09-25T09:05:20;18.30;99.90
18073;DHT22;9161;47.348;9.648;2022-09-25T09:10:42;18.40;99.90
18073;DHT22;9161;47.348;9.648;2022-09-25T09:16:20;18.50;99.90
18073;DHT22;9161;47.348;9.648;2022-09-25T09:27:34;18.40;99.90
18073;DHT22;9161;47.348;9.648;2022-09-25T09:32:31;18.60;99.90
18073;DHT22;9161;47.348;9.648;2022-09-25T09:37:20;18.70;99.90
18073;DHT22;9161;47.348;9.648;2022-09-25T09:42:11;18.60;99.90
18073;DHT22;9161;47.348;9.648;2022-09-25T09:47:04;18.60;99.90
18073;DHT22;9161;47.348;9.648;2022-09-25T09:51:53;19.20;99.90
18073;DHT22;9161;47.348;9.648;2022-09-25T09:56:40;19.70;99.90
18073;DHT22;9161;47.348;9.648;2022-09-25T10:01:27;20.10;99.90
18073;DHT22;9161;47.348;9.648;2022-09-25T10:06:31;19.70;99.90
18073;DHT22;9161;47.348;9.648;2022-09-25T10:11:17;19.70;99.90
18073;DHT22;9161;47.348;9.648;2022-09-25T10:16:03;19.90;99.90
18073;DHT22;9161;47.348;9.648;2022-09-25T10:20:56;20.00;99.90
18073;DHT22;9161;47.348;9.648;2022-09-25T10:25:42;19.70;99.90
18073;DHT22;9161;47.348;9.648;2022-09-25T10:30:26;20.20;99.90
18073;DHT22;9161;47.348;9.648;2022-09-25T10:35:14;21.80;99.90
18073;DHT22;9161;47.348;9.648;2022-09-25T10:40:01;22.70;99.90
18073;DHT22;9161;47.348;9.648;2022-09-25T10:44:46;23.90;99.90
18073;DHT22;9161;47.348;9.648;2022-09-25T10:49:45;25.50;99.90
18073;DHT22;9161;47.348;9.648;2022-09-25T10:54:47;26.10;99.90
18073;DHT22;9161;47.348;9.648;2022-09-25T10:59:33;25.70;99.90
18073;DHT22;9161;47.348;9.648;2022-09-25T11:04:21;25.60;99.90
18073;DHT22;9161;47.348;9.648;2022-09-25T11:09:13;23.80;99.90
18073;DHT22;9161;47.348;9.648;2022-09-25T11:14:01;22.50;99.90
18073;DHT22;9161;47.348;9.648;2022-09-25T11:18:48;21.30;99.90
18073;DHT22;9161;47.348;9.648;2022-09-25T11:23:37;20.50;99.90
18073;DHT22;9161;47.348;9.648;2022-09-25T11:28:27;19.80;99.90
18073;DHT22;9161;47.348;9.648;2022-09-25T11:33:18;19.60;99.90
18073;DHT22;9161;47.348;9.648;2022-09-25T11:38:16;19.10;99.90
18073;DHT22;9161;47.348;9.648;2022-09-25T11:43:30;19.00;99.90
18073;DHT22;9161;47.348;9.648;2022-09-25T11:48:21;19.10;99.90
18073;DHT22;9161;47.348;9.648;2022-09-25T11:53:13;19.40;99.90
18073;DHT22;9161;47.348;9.648;2022-09-25T11:58:14;19.50;99.90
18073;DHT22;9161;47.348;9.648;2022-09-25T12:03:23;19.60;99.90
18073;DHT22;9161;47.348;9.648;2022-09-25T12:08:20;19.20;99.90
18073;DHT22;9161;47.348;9.648;2022-09-25T12:13:14;19.00;99.90
18073;DHT22;9161;47.348;9.648;2022-09-25T12:18:05;18.60;99.90
18073;DHT22;9161;47.348;9.648;2022-09-25T12:23:00;18.40;99.90
18073;DHT22;9161;47.348;9.648;2022-09-25T12:27:49;18.30;99.90
18073;DHT22;9161;47.348;9.648;2022-09-25T12:32:48;18.40;99.90
18073;DHT22;9161;47.348;9.648;2022-09-25T12:37:38;18.50;99.90
18073;DHT22;9161;47.348;9.648;2022-09-25T12:42:33;19.00;99.90
18073;DHT22;9161;47.348;9.648;2022-09-25T12:47:24;19.50;99.90
18073;DHT22;9161;47.348;9.648;2022-09-25T12:52:11;20.50;99.90
18073;DHT22;9161;47.348;9.648;2022-09-25T12:56:57;22.00;99.90
18073;DHT22;9161;47.348;9.648;2022-09-25T13:01:48;23.60;99.90
18073;DHT22;9161;47.348;9.648;2022-09-25T13:06:41;23.90;99.90
18073;DHT22;9161;47.348;9.648;2022-09-25T13:11:35;23.40;99.90
18073;DHT22;9161;47.348;9.648;2022-09-25T13:16:20;22.80;99.90
18073;DHT22;9161;47.348;9.648;2022-09-25T13:21:24;21.30;99.90
18073;DHT22;9161;47.348;9.648;2022-09-25T13:26:10;20.50;99.90
18073;DHT22;9161;47.348;9.648;2022-09-25T13:31:07;19.80;99.90
18073;DHT22;9161;47.348;9.648;2022-09-25T13:36:08;19.00;99.90
18073;DHT22;9161;47.348;9.648;2022-09-25T13:40:53;18.40;99.90
18073;DHT22;9161;47.348;9.648;2022-09-25T13:45:37;17.70;99.90
18073;DHT22;9161;47.348;9.648;2022-09-25T13:50:40;17.50;99.90
18073;DHT22;9161;47.348;9.648;2022-09-25T13:55:24;17.50;99.90
18073;DHT22;9161;47.348;9.648;2022-09-25T14:00:15;17.40;99.90
18073;DHT22;9161;47.348;9.648;2022-09-25T14:04:59;17.50;99.90
18073;DHT22;9161;47.348;9.648;2022-09-25T14:09:45;17.40;99.90
18073;DHT22;9161;47.348;9.648;2022-09-25T14:14:32;17.50;99.90
18073;DHT22;9161;47.348;9.648;2022-09-25T14:19:22;17.70;99.90
18073;DHT22;9161;47.348;9.648;2022-09-25T14:24:17;17.20;99.90
18073;DHT22;9161;47.348;9.648;2022-09-25T14:29:02;17.30;99.90
18073;DHT22;9161;47.348;9.648;2022-09-25T14:34:03;17.50;99.90
18073;DHT22;9161;47.348;9.648;2022-09-25T14:39:02;17.40;99.90
18073;DHT22;9161;47.348;9.648;2022-09-25T14:44:00;17.30;99.90
18073;DHT22;9161;47.348;9.648;2022-09-25T14:48:48;17.30;99.90
18073;DHT22;9161;47.348;9.648;2022-09-25T14:53:34;17.30;99.90
18073;DHT22;9161;47.348;9.648;2022-09-25T14:58:23;17.20;99.90
18073;DHT22;9161;47.348;9.648;2022-09-25T15:03:11;17.20;99.90
18073;DHT22;9161;47.348;9.648;2022-09-25T15:07:57;17.00;99.90
18073;DHT22;9161;47.348;9.648;2022-09-25T15:12:44;16.70;99.90
18073;DHT22;9161;47.348;9.648;2022-09-25T15:17:30;16.60;99.90
18073;DHT22;9161;47.348;9.648;2022-09-25T15:22:17;16.80;99.90
18073;DHT22;9161;47.348;9.648;2022-09-25T15:27:04;16.80;99.90
18073;DHT22;9161;47.348;9.648;2022-09-25T15:31:49;16.90;99.90
18073;DHT22;9161;47.348;9.648;2022-09-25T15:36:35;17.00;99.90
18073;DHT22;9161;47.348;9.648;2022-09-25T15:41:20;17.10;99.90
18073;DHT22;9161;47.348;9.648;2022-09-25T15:46:26;17.00;99.90
18073;DHT22;9161;47.348;9.648;2022-09-25T15:51:16;16.70;99.90
18073;DHT22;9161;47.348;9.648;2022-09-25T15:56:10;16.30;99.90
18073;DHT22;9161;47.348;9.648;2022-09-25T16:00:57;15.90;99.90
18073;DHT22;9161;47.348;9.648;2022-09-25T16:05:59;15.80;99.90
18073;DHT22;9161;47.348;9.648;2022-09-25T16:10:45;15.70;99.90
18073;DHT22;9161;47.348;9.648;2022-09-25T16:15:49;15.60;99.90
18073;DHT22;9161;47.348;9.648;2022-09-25T16:20:34;15.50;99.90
18073;DHT22;9161;47.348;9.648;2022-09-25T16:25:22;15.30;99.90
18073;DHT22;9161;47.348;9.648;2022-09-25T16:30:15;15.20;99.90
18073;DHT22;9161;47.348;9.648;2022-09-25T16:35:01;14.70;99.90
18073;DHT22;9161;47.348;9.648;2022-09-25T16:39:44;14.50;99.90
18073;DHT22;9161;47.348;9.648;2022-09-25T16:44:40;14.40;99.90
18073;DHT22;9161;47.348;9.648;2022-09-25T16:49:28;14.50;99.90
18073;DHT22;9161;47.348;9.648;2022-09-25T16:54:17;14.50;99.90
18073;DHT22;9161;47.348;9.648;2022-09-25T16:59:05;14.40;99.90
18073;DHT22;9161;47.348;9.648;2022-09-25T17:03:53;14.20;99.90
18073;DHT22;9161;47.348;9.648;2022-09-25T17:08:41;14.10;99.90
18073;DHT22;9161;47.348;9.648;2022-09-25T17:13:27;14.00;99.90
18073;DHT22;9161;47.348;9.648;2022-09-25T17:18:17;13.90;99.90
18073;DHT22;9161;47.348;9.648;2022-09-25T17:23:02;13.90;99.90
18073;DHT22;9161;47.348;9.648;2022-09-25T17:27:45;13.80;99.90
18073;DHT22;9161;47.348;9.648;2022-09-25T17:32:30;13.90;99.90
18073;DHT22;9161;47.348;9.648;2022-09-25T17:37:15;13.90;99.90
18073;DHT22;9161;47.348;9.648;2022-09-25T17:41:58;13.80;99.90
18073;DHT22;9161;47.348;9.648;2022-09-25T17:46:43;13.80;99.90
18073;DHT22;9161;47.348;9.648;2022-09-25T17:51:29;13.80;99.90
18073;DHT22;9161;47.348;9.648;2022-09-25T17:56:12;13.80;99.90
18073;DHT22;9161;47.348;9.648;2022-09-25T18:00:58;13.70;99.90
18073;DHT22;9161;47.348;9.648;2022-09-25T18:05:42;13.70;99.90
18073;DHT22;9161;47.348;9.648;2022-09-25T18:10:28;13.60;99.90
18073;DHT22;9161;47.348;9.648;2022-09-25T18:15:12;13.80;99.90
18073;DHT22;9161;47.348;9.648;2022-09-25T18:19:56;13.60;99.90
18073;DHT22;9161;47.348;9.648;2022-09-25T18:24:57;13.50;99.90
18073;DHT22;9161;47.348;9.648;2022-09-25T18:29:42;13.40;99.90
18073;DHT22;9161;47.348;9.648;2022-09-25T18:34:26;13.40;99.90
18073;DHT22;9161;47.348;9.648;2022-09-25T18:39:11;13.30;99.90
18073;DHT22;9161;47.348;9.648;2022-09-25T18:44:01;13.20;99.90
18073;DHT22;9161;47.348;9.648;2022-09-25T18:48:49;13.20;99.90
18073;DHT22;9161;47.348;9.648;2022-09-25T18:53:35;13.20;99.90
18073;DHT22;9161;47.348;9.648;2022-09-25T18:58:18;13.70;99.90
18073;DHT22;9161;47.348;9.648;2022-09-25T19:03:02;13.50;99.90
18073;DHT22;9161;47.348;9.648;2022-09-25T19:07:48;13.50;99.90
18073;DHT22;9161;47.348;9.648;2022-09-25T19:12:33;13.40;99.90
18073;DHT22;9161;47.348;9.648;2022-09-25T19:17:17;13.30;99.90
18073;DHT22;9161;47.348;9.648;2022-09-25T19:22:01;13.20;99.90
18073;DHT22;9161;47.348;9.648;2022-09-25T19:26:47;13.10;99.90
18073;DHT22;9161;47.348;9.648;2022-09-25T19:31:31;13.00;99.90
18073;DHT22;9161;47.348;9.648;2022-09-25T19:36:17;13.00;99.90
18073;DHT22;9161;47.348;9.648;2022-09-25T19:41:02;13.00;99.90
18073;DHT22;9161;47.348;9.648;2022-09-25T19:45:51;12.90;99.90
18073;DHT22;9161;47.348;9.648;2022-09-25T19:50:39;12.90;99.90
18073;DHT22;9161;47.348;9.648;2022-09-25T19:55:22;12.90;99.90
18073;DHT22;9161;47.348;9.648;2022-09-25T20:00:07;12.90;99.90
18073;DHT22;9161;47.348;9.648;2022-09-25T20:04:52;12.80;99.90
18073;DHT22;9161;47.348;9.648;2022-09-25T20:09:36;12.90;99.90
18073;DHT22;9161;47.348;9.648;2022-09-25T20:14:21;12.90;99.90
18073;DHT22;9161;47.348;9.648;2022-09-25T20:19:08;12.80;99.90
18073;DHT22;9161;47.348;9.648;2022-09-25T20:23:55;12.60;99.90
18073;DHT22;9161;47.348;9.648;2022-09-25T20:28:39;12.60;99.90
18073;DHT22;9161;47.348;9.648;2022-09-25T20:33:23;12.70;99.90
18073;DHT22;9161;47.348;9.648;2022-09-25T20:38:10;12.70;99.90
18073;DHT22;9161;47.348;9.648;2022-09-25T20:42:55;12.70;99.90
18073;DHT22;9161;47.348;9.648;2022-09-25T20:47:39;12.80;99.90
18073;DHT22;9161;47.348;9.648;2022-09-25T20:52:28;12.80;99.90
18073;DHT22;9161;47.348;9.648;2022-09-25T20:57:13;12.80;99.90
18073;DHT22;9161;47.348;9.648;2022-09-25T21:01:58;12.70;99.90
18073;DHT22;9161;47.348;9.648;2022-09-25T21:06:43;12.70;99.90
18073;DHT22;9161;47.348;9.648;2022-09-25T21:11:28;12.70;99.90
18073;DHT22;9161;47.348;9.648;2022-09-25T21:16:13;12.60;99.90
18073;DHT22;9161;47.348;9.648;2022-09-25T21:21:00;12.60;99.90
18073;DHT22;9161;47.348;9.648;2022-09-25T21:25:44;12.60;99.90
18073;DHT22;9161;47.348;9.648;2022-09-25T21:30:28;12.60;99.90
18073;DHT22;9161;47.348;9.648;2022-09-25T21:35:13;12.60;99.90
18073;DHT22;9161;47.348;9.648;2022-09-25T21:39:59;12.60;99.90
18073;DHT22;9161;47.348;9.648;2022-09-25T21:44:42;12.50;99.90
18073;DHT22;9161;47.348;9.648;2022-09-25T21:49:27;12.40;99.90
18073;DHT22;9161;47.348;9.648;2022-09-25T21:54:11;12.20;99.90
18073;DHT22;9161;47.348;9.648;2022-09-25T21:58:57;12.00;99.90
18073;DHT22;9161;47.348;9.648;2022-09-25T22:03:51;12.10;99.90
18073;DHT22;9161;47.348;9.648;2022-09-25T22:08:39;12.10;99.90
18073;DHT22;9161;47.348;9.648;2022-09-25T22:13:23;12.10;99.90
18073;DHT22;9161;47.348;9.648;2022-09-25T22:18:08;12.20;99.90
18073;DHT22;9161;47.348;9.648;2022-09-25T22:22:52;12.10;99.90
18073;DHT22;9161;47.348;9.648;2022-09-25T22:27:35;12.10;99.90
18073;DHT22;9161;47.348;9.648;2022-09-25T22:32:19;12.00;99.90
18073;DHT22;9161;47.348;9.648;2022-09-25T22:37:04;12.00;99.90
18073;DHT22;9161;47.348;9.648;2022-09-25T22:41:48;12.00;99.90
18073;DHT22;9161;47.348;9.648;2022-09-25T22:46:33;12.00;99.90
18073;DHT22;9161;47.348;9.648;2022-09-25T22:51:18;12.00;99.90
18073;DHT22;9161;47.348;9.648;2022-09-25T22:56:12;12.00;99.90
18073;DHT22;9161;47.348;9.648;2022-09-25T23:00:55;12.00;99.90
18073;DHT22;9161;47.348;9.648;2022-09-25T23:05:40;12.00;99.90
18073;DHT22;9161;47.348;9.648;2022-09-25T23:10:24;11.90;99.90
18073;DHT22;9161;47.348;9.648;2022-09-25T23:15:29;11.80;99.90
18073;DHT22;9161;47.348;9.648;2022-09-25T23:20:12;11.80;99.90
18073;DHT22;9161;47.348;9.648;2022-09-25T23:24:56;11.70;99.90
18073;DHT22;9161;47.348;9.648;2022-09-25T23:29:39;11.70;99.90
18073;DHT22;9161;47.348;9.648;2022-09-25T23:34:24;11.70;99.90
18073;DHT22;9161;47.348;9.648;2022-09-25T23:39:13;11.80;99.90
18073;DHT22;9161;47.348;9.648;2022-09-25T23:43:58;11.90;99.90
18073;DHT22;9161;47.348;9.648;2022-09-25T23:48:42;11.90;99.90
18073;DHT22;9161;47.348;9.648;2022-09-25T23:53:28;11.80;99.90
18073;DHT22;9161;47.348;9.648;2022-09-25T23:58:12;11.80;99.90
